createdAt,value
2018-04-08T00:00:31.765Z,0.00
2018-04-08T00:01:32.444Z,0.00
2018-04-08T00:02:31.772Z,0.00
2018-04-08T00:03:32.367Z,0.00
2018-04-08T00:04:31.809Z,0.00
2018-04-08T00:05:31.880Z,0.00
2018-04-08T00:06:31.755Z,0.00
2018-04-08T00:07:31.687Z,0.00
2018-04-08T00:08:31.686Z,0.00
2018-04-08T00:09:31.662Z,0.00
2018-04-08T00:10:31.663Z,0.00
2018-04-08T00:11:31.677Z,0.00
2018-04-08T00:12:31.700Z,0.00
2018-04-08T00:13:31.655Z,0.00
2018-04-08T00:14:31.644Z,0.00
2018-04-08T00:15:31.591Z,0.00
2018-04-08T00:16:31.645Z,0.00
2018-04-08T00:17:31.599Z,0.00
2018-04-08T00:18:31.587Z,0.00
2018-04-08T00:19:32.249Z,0.00
2018-04-08T00:20:31.590Z,0.00
2018-04-08T00:21:31.625Z,0.00
2018-04-08T00:22:31.527Z,0.00
2018-04-08T00:23:31.532Z,0.00
2018-04-08T00:24:31.527Z,0.00
2018-04-08T00:25:31.536Z,0.00
2018-04-08T00:26:31.545Z,0.00
2018-04-08T00:27:31.931Z,0.00
2018-04-08T00:28:31.488Z,0.00
2018-04-08T00:29:31.489Z,0.00
2018-04-08T00:30:31.485Z,0.00
2018-04-08T00:31:31.464Z,0.00
2018-04-08T00:32:31.473Z,0.00
2018-04-08T00:33:32.302Z,0.00
2018-04-08T00:34:31.452Z,0.00
2018-04-08T00:35:31.420Z,0.00
2018-04-08T00:36:31.412Z,0.00
2018-04-08T00:37:31.400Z,0.00
2018-04-08T00:38:31.766Z,0.00
2018-04-08T00:39:31.479Z,0.00
2018-04-08T00:40:32.316Z,0.00
2018-04-08T00:41:31.380Z,0.00
2018-04-08T00:42:31.363Z,0.00
2018-04-08T00:43:31.350Z,0.00
2018-04-08T00:44:32.286Z,0.00
2018-04-08T00:45:31.316Z,0.00
2018-04-08T00:46:31.304Z,0.00
2018-04-08T00:47:31.297Z,0.00
2018-04-08T00:48:31.327Z,0.00
2018-04-08T00:49:31.331Z,0.00
2018-04-08T00:50:31.299Z,0.00
2018-04-08T00:51:31.242Z,0.00
2018-04-08T00:52:31.256Z,0.00
2018-04-08T00:53:31.256Z,0.00
2018-04-08T00:54:31.242Z,0.00
2018-04-08T00:55:31.241Z,0.00
2018-04-08T00:56:31.349Z,0.00
2018-04-08T00:57:31.212Z,0.00
2018-04-08T00:58:31.181Z,0.00
2018-04-08T00:59:31.173Z,0.00
2018-04-08T01:00:31.188Z,0.00
2018-04-08T01:01:31.175Z,0.00
2018-04-08T01:02:31.182Z,0.00
2018-04-08T01:03:31.131Z,0.00
2018-04-08T01:04:31.162Z,0.00
2018-04-08T01:05:31.154Z,0.00
2018-04-08T01:06:31.131Z,0.00
2018-04-08T01:07:31.111Z,0.00
2018-04-08T01:08:31.366Z,0.00
2018-04-08T01:09:31.104Z,0.00
2018-04-08T01:10:31.133Z,0.00
2018-04-08T01:11:31.086Z,0.00
2018-04-08T01:12:31.087Z,0.00
2018-04-08T01:13:31.103Z,0.00
2018-04-08T01:14:31.070Z,0.00
2018-04-08T01:15:31.016Z,0.00
2018-04-08T01:16:31.044Z,0.00
2018-04-08T01:17:31.052Z,0.00
2018-04-08T01:18:30.979Z,0.00
2018-04-08T01:19:31.030Z,0.00
2018-04-08T01:20:30.952Z,0.00
2018-04-08T01:21:31.012Z,0.00
2018-04-08T01:22:30.953Z,0.00
2018-04-08T01:23:30.943Z,0.00
2018-04-08T01:24:31.352Z,0.00
2018-04-08T01:25:30.928Z,0.00
2018-04-08T01:26:30.891Z,0.00
2018-04-08T01:27:30.899Z,0.00
2018-04-08T01:28:32.811Z,0.00
2018-04-08T01:29:30.962Z,0.00
2018-04-08T01:30:30.872Z,0.00
2018-04-08T01:31:30.840Z,0.00
2018-04-08T01:32:31.840Z,0.00
2018-04-08T01:33:30.862Z,0.00
2018-04-08T01:34:30.824Z,0.00
2018-04-08T01:35:30.866Z,0.00
2018-04-08T01:36:30.812Z,0.00
2018-04-08T01:37:30.801Z,0.00
2018-04-08T01:38:30.759Z,0.00
2018-04-08T01:39:30.786Z,0.00
2018-04-08T01:40:30.808Z,0.00
2018-04-08T01:41:30.857Z,0.00
2018-04-08T01:42:30.775Z,0.00
2018-04-08T01:43:30.742Z,0.00
2018-04-08T01:44:30.698Z,0.00
2018-04-08T01:45:30.701Z,0.00
2018-04-08T01:46:30.740Z,0.00
2018-04-08T01:47:30.692Z,0.00
2018-04-08T01:48:30.671Z,0.00
2018-04-08T01:49:30.663Z,0.00
2018-04-08T01:50:30.659Z,0.00
2018-04-08T01:51:31.032Z,0.00
2018-04-08T01:52:30.638Z,0.00
2018-04-08T01:53:30.611Z,0.00
2018-04-08T01:54:30.600Z,0.00
2018-04-08T01:55:30.604Z,0.00
2018-04-08T01:56:30.624Z,0.00
2018-04-08T01:57:30.851Z,0.00
2018-04-08T01:58:30.594Z,0.00
2018-04-08T01:59:30.575Z,0.00
2018-04-08T02:00:30.576Z,0.00
2018-04-08T02:01:30.577Z,0.00
2018-04-08T02:02:30.656Z,0.00
2018-04-08T02:03:30.535Z,0.00
2018-04-08T02:04:30.526Z,0.00
2018-04-08T02:05:30.505Z,0.00
2018-04-08T02:06:30.516Z,0.00
2018-04-08T02:07:30.494Z,0.00
2018-04-08T02:08:30.546Z,0.00
2018-04-08T02:09:30.487Z,0.00
2018-04-08T02:10:31.346Z,0.00
2018-04-08T02:11:30.475Z,0.00
2018-04-08T02:12:30.422Z,0.00
2018-04-08T02:13:30.531Z,0.00
2018-04-08T02:14:30.428Z,0.00
2018-04-08T02:15:30.430Z,0.00
2018-04-08T02:16:30.834Z,0.00
2018-04-08T02:17:30.396Z,0.00
2018-04-08T02:18:30.383Z,0.00
2018-04-08T02:19:30.411Z,0.00
2018-04-08T02:20:30.845Z,0.00
2018-04-08T02:21:30.326Z,0.00
2018-04-08T02:22:31.351Z,0.00
2018-04-08T02:23:30.336Z,0.00
2018-04-08T02:24:30.307Z,0.00
2018-04-08T02:25:30.282Z,0.00
2018-04-08T02:26:30.279Z,0.00
2018-04-08T02:27:30.314Z,0.00
2018-04-08T02:28:30.249Z,0.00
2018-04-08T02:29:30.257Z,0.00
2018-04-08T02:30:30.274Z,0.00
2018-04-08T02:31:30.324Z,0.00
2018-04-08T02:32:30.230Z,0.00
2018-04-08T02:33:30.254Z,0.00
2018-04-08T02:34:30.209Z,0.00
2018-04-08T02:35:30.264Z,0.00
2018-04-08T02:36:30.174Z,0.00
2018-04-08T02:37:30.189Z,0.00
2018-04-08T02:38:30.157Z,0.00
2018-04-08T02:39:30.147Z,0.00
2018-04-08T02:40:30.193Z,0.00
2018-04-08T02:41:30.196Z,0.00
2018-04-08T02:42:30.123Z,0.00
2018-04-08T02:43:30.125Z,0.00
2018-04-08T02:44:30.094Z,0.00
2018-04-08T02:45:30.107Z,0.00
2018-04-08T02:46:30.218Z,0.00
2018-04-08T02:47:30.116Z,0.00
2018-04-08T02:48:30.168Z,0.00
2018-04-08T02:49:30.111Z,0.00
2018-04-08T02:50:30.084Z,0.00
2018-04-08T02:51:30.053Z,0.00
2018-04-08T02:52:30.051Z,0.00
2018-04-08T02:53:30.006Z,0.00
2018-04-08T02:54:30.011Z,0.00
2018-04-08T02:55:29.972Z,0.00
2018-04-08T02:56:30.040Z,0.00
2018-04-08T02:57:30.044Z,0.00
2018-04-08T02:58:30.039Z,0.00
2018-04-08T02:59:30.051Z,0.00
2018-04-08T03:00:29.955Z,0.00
2018-04-08T03:01:29.945Z,0.00
2018-04-08T03:02:29.917Z,0.00
2018-04-08T03:03:29.918Z,0.00
2018-04-08T03:04:29.997Z,0.00
2018-04-08T03:05:30.828Z,0.00
2018-04-08T03:06:29.879Z,0.00
2018-04-08T03:07:29.874Z,0.00
2018-04-08T03:08:29.887Z,0.00
2018-04-08T03:09:29.851Z,0.00
2018-04-08T03:10:30.886Z,0.00
2018-04-08T03:11:29.835Z,0.00
2018-04-08T03:12:29.796Z,0.00
2018-04-08T03:13:29.901Z,0.00
2018-04-08T03:14:29.788Z,0.00
2018-04-08T03:15:29.794Z,0.00
2018-04-08T03:16:30.364Z,0.00
2018-04-08T03:17:29.773Z,0.00
2018-04-08T03:18:29.797Z,0.00
2018-04-08T03:19:29.756Z,0.00
2018-04-08T03:20:29.726Z,0.00
2018-04-08T03:21:29.705Z,0.00
2018-04-08T03:22:29.698Z,0.00
2018-04-08T03:23:29.832Z,0.00
2018-04-08T03:24:29.718Z,0.00
2018-04-08T03:25:29.724Z,0.00
2018-04-08T03:26:29.658Z,0.00
2018-04-08T03:27:29.661Z,0.00
2018-04-08T03:28:29.642Z,0.00
2018-04-08T03:29:29.639Z,0.00
2018-04-08T03:30:29.646Z,0.00
2018-04-08T03:31:29.607Z,0.00
2018-04-08T03:32:29.738Z,0.00
2018-04-08T03:33:29.594Z,0.00
2018-04-08T03:34:29.595Z,0.00
2018-04-08T03:35:29.564Z,0.00
2018-04-08T03:36:29.629Z,0.00
2018-04-08T03:37:29.977Z,0.00
2018-04-08T03:38:29.615Z,0.00
2018-04-08T03:39:29.612Z,0.00
2018-04-08T03:40:29.516Z,0.00
2018-04-08T03:41:29.509Z,0.00
2018-04-08T03:42:29.500Z,0.00
2018-04-08T03:43:30.371Z,0.00
2018-04-08T03:44:29.491Z,0.00
2018-04-08T03:45:29.439Z,0.00
2018-04-08T03:46:29.457Z,0.00
2018-04-08T03:47:29.457Z,0.00
2018-04-08T03:48:30.380Z,0.00
2018-04-08T03:49:29.411Z,0.00
2018-04-08T03:50:29.447Z,0.00
2018-04-08T03:51:29.411Z,0.00
2018-04-08T03:52:29.380Z,0.00
2018-04-08T03:53:29.362Z,0.00
2018-04-08T03:54:29.359Z,0.00
2018-04-08T03:55:29.383Z,0.00
2018-04-08T03:56:29.336Z,0.00
2018-04-08T03:57:29.316Z,0.00
2018-04-08T03:58:29.320Z,0.00
2018-04-08T03:59:29.298Z,0.00
2018-04-08T04:00:29.364Z,0.00
2018-04-08T04:01:29.378Z,0.00
2018-04-08T04:02:29.294Z,0.00
2018-04-08T04:03:29.271Z,0.00
2018-04-08T04:04:29.247Z,0.00
2018-04-08T04:05:29.239Z,0.00
2018-04-08T04:06:29.242Z,0.00
2018-04-08T04:07:29.281Z,0.00
2018-04-08T04:08:29.212Z,0.00
2018-04-08T04:09:29.198Z,0.00
2018-04-08T04:10:29.197Z,0.00
2018-04-08T04:11:29.174Z,0.00
2018-04-08T04:12:29.174Z,0.00
2018-04-08T04:13:29.153Z,0.00
2018-04-08T04:14:29.140Z,0.00
2018-04-08T04:15:29.144Z,0.00
2018-04-08T04:16:29.167Z,4.00
2018-04-08T04:17:29.114Z,4.00
2018-04-08T04:18:29.133Z,0.00
2018-04-08T04:19:29.425Z,4.00
2018-04-08T04:20:29.068Z,4.00
2018-04-08T04:21:29.065Z,4.00
2018-04-08T04:22:29.038Z,4.00
2018-04-08T04:23:29.031Z,4.00
2018-04-08T04:24:29.424Z,8.00
2018-04-08T04:25:29.078Z,8.00
2018-04-08T04:26:29.013Z,12.00
2018-04-08T04:27:28.995Z,12.00
2018-04-08T04:28:28.964Z,16.00
2018-04-08T04:29:29.015Z,16.00
2018-04-08T04:30:29.003Z,20.00
2018-04-08T04:31:28.947Z,28.00
2018-04-08T04:32:28.927Z,32.00
2018-04-08T04:33:28.929Z,36.00
2018-04-08T04:34:28.896Z,40.00
2018-04-08T04:35:29.073Z,44.00
2018-04-08T04:36:28.884Z,52.00
2018-04-08T04:37:28.889Z,60.00
2018-04-08T04:38:28.864Z,68.00
2018-04-08T04:39:28.858Z,76.00
2018-04-08T04:40:28.831Z,88.00
2018-04-08T04:41:29.116Z,100.00
2018-04-08T04:42:28.842Z,108.00
2018-04-08T04:43:28.813Z,120.00
2018-04-08T04:44:28.801Z,136.00
2018-04-08T04:45:28.780Z,148.00
2018-04-08T04:46:28.781Z,168.00
2018-04-08T04:47:28.914Z,180.00
2018-04-08T04:48:28.753Z,200.00
2018-04-08T04:49:28.752Z,216.00
2018-04-08T04:50:28.730Z,236.00
2018-04-08T04:51:28.742Z,256.00
2018-04-08T04:52:28.728Z,276.00
2018-04-08T04:53:28.736Z,300.00
2018-04-08T04:54:28.713Z,316.00
2018-04-08T04:55:28.672Z,340.00
2018-04-08T04:56:28.684Z,364.00
2018-04-08T04:57:28.666Z,388.00
2018-04-08T04:58:28.714Z,412.00
2018-04-08T04:59:28.645Z,436.00
2018-04-08T05:00:28.619Z,464.00
2018-04-08T05:01:28.605Z,488.00
2018-04-08T05:02:28.590Z,516.00
2018-04-08T05:03:28.578Z,540.00
2018-04-08T05:04:28.599Z,568.00
2018-04-08T05:05:28.552Z,596.00
2018-04-08T05:06:28.565Z,620.00
2018-04-08T05:07:28.543Z,652.00
2018-04-08T05:08:28.524Z,676.00
2018-04-08T05:09:28.533Z,704.00
2018-04-08T05:10:28.511Z,732.00
2018-04-08T05:11:28.497Z,760.00
2018-04-08T05:12:28.538Z,788.00
2018-04-08T05:13:28.522Z,816.00
2018-04-08T05:14:28.470Z,848.00
2018-04-08T05:15:28.443Z,876.00
2018-04-08T05:16:28.465Z,908.00
2018-04-08T05:17:28.428Z,932.00
2018-04-08T05:18:28.408Z,964.00
2018-04-08T05:19:28.439Z,992.00
2018-04-08T05:20:28.409Z,1020.00
2018-04-08T05:21:28.407Z,1048.00
2018-04-08T05:22:28.363Z,1076.00
2018-04-08T05:23:28.428Z,1100.00
2018-04-08T05:24:28.360Z,1132.00
2018-04-08T05:25:28.336Z,1156.00
2018-04-08T05:26:28.332Z,1184.00
2018-04-08T05:27:28.330Z,1212.00
2018-04-08T05:28:28.297Z,1236.00
2018-04-08T05:29:28.331Z,1268.00
2018-04-08T05:30:28.274Z,1292.00
2018-04-08T05:31:28.286Z,1316.00
2018-04-08T05:32:28.260Z,1340.00
2018-04-08T05:33:28.313Z,1368.00
2018-04-08T05:34:28.241Z,1392.00
2018-04-08T05:35:28.223Z,1420.00
2018-04-08T05:36:28.222Z,1444.00
2018-04-08T05:37:28.224Z,1468.00
2018-04-08T05:38:28.217Z,1496.00
2018-04-08T05:39:28.200Z,1524.00
2018-04-08T05:40:28.191Z,1548.00
2018-04-08T05:41:28.156Z,1572.00
2018-04-08T05:42:28.152Z,1600.00
2018-04-08T05:43:28.155Z,1624.00
2018-04-08T05:44:28.130Z,1652.00
2018-04-08T05:45:28.143Z,1680.00
2018-04-08T05:46:28.100Z,1704.00
2018-04-08T05:47:28.119Z,1728.00
2018-04-08T05:48:28.079Z,1756.00
2018-04-08T05:49:28.088Z,1784.00
2018-04-08T05:50:28.056Z,1816.00
2018-04-08T05:51:28.073Z,1844.00
2018-04-08T05:52:28.049Z,1864.00
2018-04-08T05:53:28.052Z,1892.00
2018-04-08T05:54:28.012Z,1916.00
2018-04-08T05:55:27.995Z,1944.00
2018-04-08T05:56:27.997Z,1968.00
2018-04-08T05:57:28.013Z,1988.00
2018-04-08T05:58:27.970Z,2012.00
2018-04-08T05:59:27.970Z,2032.00
2018-04-08T06:00:27.961Z,2056.00
2018-04-08T06:01:27.957Z,2084.00
2018-04-08T06:02:27.964Z,2104.00
2018-04-08T06:03:27.906Z,2136.00
2018-04-08T06:04:28.286Z,2160.00
2018-04-08T06:05:27.891Z,2184.00
2018-04-08T06:06:27.910Z,2212.00
2018-04-08T06:07:27.870Z,2240.00
2018-04-08T06:08:27.862Z,2272.00
2018-04-08T06:09:27.865Z,2300.00
2018-04-08T06:10:27.870Z,2332.00
2018-04-08T06:11:27.826Z,2360.00
2018-04-08T06:12:27.865Z,2388.00
2018-04-08T06:13:27.797Z,2420.00
2018-04-08T06:14:27.786Z,2456.00
2018-04-08T06:15:27.797Z,2488.00
2018-04-08T06:16:27.765Z,2524.00
2018-04-08T06:17:27.810Z,2568.00
2018-04-08T06:18:27.760Z,2612.00
2018-04-08T06:19:27.745Z,2664.00
2018-04-08T06:20:27.738Z,2704.00
2018-04-08T06:21:27.754Z,2736.00
2018-04-08T06:22:27.766Z,2752.00
2018-04-08T06:23:27.705Z,2764.00
2018-04-08T06:24:27.733Z,2760.00
2018-04-08T06:25:27.696Z,2752.00
2018-04-08T06:26:27.665Z,2748.00
2018-04-08T06:27:27.650Z,2744.00
2018-04-08T06:28:27.650Z,2732.00
2018-04-08T06:29:27.660Z,2732.00
2018-04-08T06:30:27.655Z,2740.00
2018-04-08T06:31:27.612Z,2748.00
2018-04-08T06:32:27.636Z,2744.00
2018-04-08T06:33:27.601Z,2728.00
2018-04-08T06:34:27.586Z,2680.00
2018-04-08T06:35:27.602Z,2744.00
2018-04-08T06:36:27.582Z,2648.00
2018-04-08T06:37:27.573Z,2744.00
2018-04-08T06:38:27.539Z,2676.00
2018-04-08T06:39:27.570Z,2844.00
2018-04-08T06:40:27.570Z,2836.00
2018-04-08T06:41:27.535Z,2884.00
2018-04-08T06:42:27.511Z,2908.00
2018-04-08T06:43:27.492Z,2924.00
2018-04-08T06:44:27.492Z,2940.00
2018-04-08T06:45:27.498Z,2964.00
2018-04-08T06:46:27.495Z,3004.00
2018-04-08T06:47:27.479Z,3048.00
2018-04-08T06:48:27.452Z,3084.00
2018-04-08T06:49:27.482Z,3108.00
2018-04-08T06:50:27.424Z,3132.00
2018-04-08T06:51:27.442Z,3160.00
2018-04-08T06:52:27.419Z,3196.00
2018-04-08T06:53:27.414Z,3212.00
2018-04-08T06:54:27.382Z,3252.00
2018-04-08T06:55:27.393Z,3216.00
2018-04-08T06:56:27.412Z,3216.00
2018-04-08T06:57:27.383Z,3260.00
2018-04-08T06:58:27.386Z,3148.00
2018-04-08T06:59:27.333Z,3144.00
2018-04-08T07:00:27.350Z,3200.00
2018-04-08T07:01:27.388Z,3344.00
2018-04-08T07:02:27.330Z,3312.00
2018-04-08T07:03:27.316Z,3316.00
2018-04-08T07:04:27.298Z,3356.00
2018-04-08T07:05:27.281Z,3420.00
2018-04-08T07:06:27.285Z,3372.00
2018-04-08T07:07:27.305Z,3488.00
2018-04-08T07:08:27.453Z,3408.00
2018-04-08T07:09:27.260Z,3528.00
2018-04-08T07:10:27.248Z,3584.00
2018-04-08T07:11:27.235Z,3608.00
2018-04-08T07:12:27.228Z,3592.00
2018-04-08T07:13:27.221Z,3568.00
2018-04-08T07:14:27.264Z,3548.00
2018-04-08T07:15:27.193Z,3496.00
2018-04-08T07:16:27.175Z,3472.00
2018-04-08T07:17:27.172Z,3600.00
2018-04-08T07:18:27.213Z,3640.00
2018-04-08T07:19:27.161Z,3732.00
2018-04-08T07:20:27.159Z,3864.00
2018-04-08T07:21:27.157Z,3980.00
2018-04-08T07:22:27.123Z,4168.00
2018-04-08T07:23:27.152Z,4368.00
2018-04-08T07:24:27.104Z,4392.00
2018-04-08T07:25:27.118Z,4532.00
2018-04-08T07:26:27.087Z,4648.00
2018-04-08T07:27:27.089Z,4788.00
2018-04-08T07:28:27.076Z,4924.00
2018-04-08T07:29:27.080Z,5088.00
2018-04-08T07:30:27.122Z,5284.00
2018-04-08T07:31:27.043Z,5548.00
2018-04-08T07:32:27.039Z,5824.00
2018-04-08T07:33:27.042Z,6188.00
2018-04-08T07:34:27.048Z,6612.00
2018-04-08T07:35:27.094Z,6916.00
2018-04-08T07:36:27.013Z,7184.00
2018-04-08T07:37:27.003Z,7516.00
2018-04-08T07:38:26.993Z,7672.00
2018-04-08T07:39:26.979Z,7764.00
2018-04-08T07:40:26.973Z,7864.00
2018-04-08T07:41:26.992Z,7968.00
2018-04-08T07:42:26.967Z,7996.00
2018-04-08T07:43:26.953Z,8048.00
2018-04-08T07:44:26.949Z,8060.00
2018-04-08T07:45:26.937Z,8044.00
2018-04-08T07:46:26.946Z,8044.00
2018-04-08T07:47:26.973Z,8104.00
2018-04-08T07:48:26.935Z,8308.00
2018-04-08T07:49:26.896Z,8668.00
2018-04-08T07:50:26.928Z,9208.00
2018-04-08T07:51:26.876Z,9848.00
2018-04-08T07:52:26.901Z,10188.00
2018-04-08T07:53:26.968Z,10316.00
2018-04-08T07:54:26.887Z,10084.00
2018-04-08T07:55:26.871Z,9852.00
2018-04-08T07:56:26.925Z,9752.00
2018-04-08T07:57:27.453Z,9660.00
2018-04-08T07:58:26.837Z,9668.00
2018-04-08T07:59:27.290Z,9720.00
2018-04-08T08:00:26.832Z,9900.00
2018-04-08T08:01:26.815Z,9844.00
2018-04-08T08:02:26.809Z,9860.00
2018-04-08T08:03:26.825Z,9716.00
2018-04-08T08:04:26.800Z,9572.00
2018-04-08T08:05:27.643Z,9356.00
2018-04-08T08:06:27.398Z,9156.00
2018-04-08T08:07:27.441Z,8896.00
2018-04-08T08:08:27.607Z,8752.00
2018-04-08T08:09:27.999Z,8664.00
2018-04-08T08:10:27.512Z,8624.00
2018-04-08T08:11:28.001Z,8640.00
2018-04-08T08:12:27.492Z,8700.00
2018-04-08T08:13:27.578Z,8852.00
2018-04-08T08:14:27.504Z,9012.00
2018-04-08T08:15:27.384Z,9164.00
2018-04-08T08:16:28.441Z,9208.00
2018-04-08T08:17:27.333Z,9244.00
2018-04-08T08:18:27.491Z,9268.00
2018-04-08T08:19:27.347Z,9220.00
2018-04-08T08:20:27.462Z,9248.00
2018-04-08T08:21:27.520Z,9208.00
2018-04-08T08:22:27.866Z,9252.00
2018-04-08T08:23:27.479Z,9208.00
2018-04-08T08:24:27.338Z,9320.00
2018-04-08T08:25:27.311Z,9460.00
2018-04-08T08:26:27.468Z,9660.00
2018-04-08T08:27:27.300Z,9828.00
2018-04-08T08:28:27.451Z,9884.00
2018-04-08T08:29:28.206Z,10172.00
2018-04-08T08:30:27.376Z,10308.00
2018-04-08T08:31:27.346Z,10844.00
2018-04-08T08:32:27.412Z,10336.00
2018-04-08T08:33:27.411Z,9660.00
2018-04-08T08:34:27.248Z,9240.00
2018-04-08T08:35:27.274Z,8780.00
2018-04-08T08:36:27.311Z,8668.00
2018-04-08T08:37:27.347Z,8608.00
2018-04-08T08:38:27.386Z,8788.00
2018-04-08T08:39:27.414Z,9024.00
2018-04-08T08:40:27.811Z,9236.00
2018-04-08T08:41:27.193Z,9576.00
2018-04-08T08:42:27.275Z,10188.00
2018-04-08T08:43:27.270Z,10568.00
2018-04-08T08:44:27.294Z,10612.00
2018-04-08T08:45:26.592Z,10528.00
2018-04-08T08:46:28.021Z,10500.00
2018-04-08T08:47:27.381Z,10492.00
2018-04-08T08:48:27.287Z,10400.00
2018-04-08T08:49:27.225Z,10304.00
2018-04-08T08:50:27.295Z,10312.00
2018-04-08T08:51:27.237Z,10456.00
2018-04-08T08:52:27.301Z,10592.00
2018-04-08T08:53:27.250Z,10784.00
2018-04-08T08:54:27.302Z,10956.00
2018-04-08T08:55:27.990Z,11092.00
2018-04-08T08:56:27.156Z,11432.00
2018-04-08T08:57:27.004Z,11872.00
2018-04-08T08:58:27.190Z,12344.00
2018-04-08T08:59:27.043Z,12668.00
2018-04-08T09:00:27.187Z,12680.00
2018-04-08T09:01:27.199Z,12456.00
2018-04-08T09:02:27.176Z,12148.00
2018-04-08T09:03:27.563Z,12072.00
2018-04-08T09:04:27.183Z,12176.00
2018-04-08T09:05:27.157Z,12368.00
2018-04-08T09:06:27.186Z,12820.00
2018-04-08T09:07:27.985Z,12996.00
2018-04-08T09:08:27.151Z,13356.00
2018-04-08T09:09:27.015Z,13568.00
2018-04-08T09:10:27.220Z,13516.00
2018-04-08T09:11:27.149Z,13348.00
2018-04-08T09:12:27.131Z,13180.00
2018-04-08T09:13:27.352Z,13172.00
2018-04-08T09:14:27.277Z,13164.00
2018-04-08T09:15:27.103Z,13292.00
2018-04-08T09:16:27.120Z,13540.00
2018-04-08T09:17:27.195Z,14028.00
2018-04-08T09:18:27.309Z,14020.00
2018-04-08T09:19:27.127Z,14036.00
2018-04-08T09:20:27.130Z,14092.00
2018-04-08T09:21:26.438Z,14008.00
2018-04-08T09:22:26.428Z,14112.00
2018-04-08T09:23:26.451Z,13904.00
2018-04-08T09:24:26.411Z,14344.00
2018-04-08T09:25:26.409Z,14472.00
2018-04-08T09:26:26.455Z,14664.00
2018-04-08T09:27:26.418Z,15264.00
2018-04-08T09:28:26.446Z,15168.00
2018-04-08T09:29:26.412Z,15008.00
2018-04-08T09:30:26.387Z,15040.00
2018-04-08T09:31:26.410Z,16224.00
2018-04-08T09:32:26.390Z,16480.00
2018-04-08T09:33:26.414Z,15488.00
2018-04-08T09:34:26.379Z,14760.00
2018-04-08T09:35:26.427Z,15296.00
2018-04-08T09:36:26.436Z,16896.00
2018-04-08T09:37:26.380Z,17760.00
2018-04-08T09:38:26.441Z,15808.00
2018-04-08T09:39:26.364Z,16224.00
2018-04-08T09:40:26.362Z,17792.00
2018-04-08T09:41:26.378Z,18656.00
2018-04-08T09:42:26.359Z,17152.00
2018-04-08T09:43:26.364Z,16672.00
2018-04-08T09:44:26.385Z,18720.00
2018-04-08T09:45:26.401Z,20512.00
2018-04-08T09:46:27.043Z,20640.00
2018-04-08T09:47:27.087Z,19904.00
2018-04-08T09:48:26.912Z,22592.00
2018-04-08T09:49:27.505Z,23328.00
2018-04-08T09:50:26.356Z,33728.00
2018-04-08T09:51:26.346Z,33856.00
2018-04-08T09:52:26.356Z,35456.00
2018-04-08T09:53:26.338Z,35936.00
2018-04-08T09:54:26.372Z,35520.00
2018-04-08T09:55:26.526Z,28544.00
2018-04-08T09:56:26.355Z,25120.00
2018-04-08T09:57:26.344Z,20480.00
2018-04-08T09:58:26.369Z,18944.00
2018-04-08T09:59:26.368Z,19552.00
2018-04-08T10:00:26.360Z,20800.00
2018-04-08T10:01:27.302Z,18880.00
2018-04-08T10:02:27.027Z,19872.00
2018-04-08T10:03:26.994Z,19072.00
2018-04-08T10:04:26.354Z,18528.00
2018-04-08T10:05:26.359Z,18336.00
2018-04-08T10:06:26.333Z,17760.00
2018-04-08T10:07:26.335Z,17248.00
2018-04-08T10:08:26.332Z,17792.00
2018-04-08T10:09:26.354Z,16992.00
2018-04-08T10:10:26.332Z,17152.00
2018-04-08T10:11:26.349Z,22496.00
2018-04-08T10:12:26.383Z,25824.00
2018-04-08T10:13:26.344Z,25184.00
2018-04-08T10:14:26.345Z,23744.00
2018-04-08T10:15:26.401Z,23040.00
2018-04-08T10:16:26.326Z,26336.00
2018-04-08T10:17:26.342Z,23296.00
2018-04-08T10:18:26.333Z,22976.00
2018-04-08T10:19:26.329Z,22432.00
2018-04-08T10:20:26.348Z,36000.00
2018-04-08T10:21:26.368Z,30080.00
2018-04-08T10:22:27.001Z,38912.00
2018-04-08T10:23:26.320Z,43424.00
2018-04-08T10:24:26.349Z,36352.00
2018-04-08T10:25:26.321Z,40928.00
2018-04-08T10:26:26.373Z,31584.00
2018-04-08T10:27:26.341Z,30880.00
2018-04-08T10:28:26.346Z,31808.00
2018-04-08T10:29:26.383Z,34400.00
2018-04-08T10:30:26.341Z,25504.00
2018-04-08T10:31:26.330Z,34976.00
2018-04-08T10:32:26.337Z,27072.00
2018-04-08T10:33:26.341Z,26592.00
2018-04-08T10:34:26.335Z,28800.00
2018-04-08T10:35:26.361Z,31296.00
2018-04-08T10:36:26.363Z,28128.00
2018-04-08T10:37:27.496Z,26592.00
2018-04-08T10:38:26.339Z,21600.00
2018-04-08T10:39:26.351Z,24640.00
2018-04-08T10:40:26.336Z,22688.00
2018-04-08T10:41:26.348Z,21952.00
2018-04-08T10:42:26.334Z,21440.00
2018-04-08T10:43:26.396Z,20672.00
2018-04-08T10:44:26.370Z,19712.00
2018-04-08T10:45:26.373Z,20608.00
2018-04-08T10:46:26.361Z,20704.00
2018-04-08T10:47:26.362Z,24704.00
2018-04-08T10:48:26.370Z,20320.00
2018-04-08T10:49:26.375Z,20576.00
2018-04-08T10:50:26.385Z,19936.00
2018-04-08T10:51:26.360Z,21312.00
2018-04-08T10:52:26.387Z,20960.00
2018-04-08T10:53:26.374Z,20288.00
2018-04-08T10:54:26.364Z,21952.00
2018-04-08T10:55:26.418Z,29984.00
2018-04-08T10:56:26.355Z,28864.00
2018-04-08T10:57:26.361Z,25632.00
2018-04-08T10:58:26.357Z,39296.00
2018-04-08T10:59:26.381Z,22624.00
2018-04-08T11:00:26.357Z,18400.00
2018-04-08T11:01:26.431Z,18272.00
2018-04-08T11:02:26.369Z,15232.00
2018-04-08T11:03:26.370Z,14620.00
2018-04-08T11:04:26.351Z,16000.00
2018-04-08T11:05:26.379Z,30432.00
2018-04-08T11:06:26.396Z,46176.00
2018-04-08T11:07:26.393Z,32928.00
2018-04-08T11:08:26.391Z,30880.00
2018-04-08T11:09:26.355Z,33792.00
2018-04-08T11:10:26.381Z,31744.00
2018-04-08T11:11:26.373Z,29312.00
2018-04-08T11:12:26.411Z,25760.00
2018-04-08T11:13:26.411Z,22144.00
2018-04-08T11:14:26.368Z,17024.00
2018-04-08T11:15:26.440Z,15616.00
2018-04-08T11:16:26.367Z,14432.00
2018-04-08T11:17:26.365Z,15968.00
2018-04-08T11:18:26.379Z,21024.00
2018-04-08T11:19:26.382Z,22336.00
2018-04-08T11:20:26.385Z,19904.00
2018-04-08T11:21:26.384Z,20160.00
2018-04-08T11:22:26.407Z,19456.00
2018-04-08T11:23:26.368Z,15808.00
2018-04-08T11:24:26.381Z,13780.00
2018-04-08T11:25:26.409Z,12512.00
2018-04-08T11:26:26.385Z,13852.00
2018-04-08T11:27:26.368Z,18176.00
2018-04-08T11:28:26.383Z,20256.00
2018-04-08T11:29:26.403Z,21280.00
2018-04-08T11:30:26.444Z,22240.00
2018-04-08T11:31:26.398Z,19392.00
2018-04-08T11:32:26.418Z,20704.00
2018-04-08T11:33:26.380Z,25568.00
2018-04-08T11:34:26.392Z,27136.00
2018-04-08T11:35:26.383Z,22560.00
2018-04-08T11:36:26.375Z,19904.00
2018-04-08T11:37:26.405Z,17920.00
2018-04-08T11:38:26.397Z,21920.00
2018-04-08T11:39:26.377Z,30752.00
2018-04-08T11:40:26.379Z,30240.00
2018-04-08T11:41:26.375Z,28896.00
2018-04-08T11:42:26.472Z,26304.00
2018-04-08T11:43:26.405Z,24480.00
2018-04-08T11:44:26.387Z,27808.00
2018-04-08T11:45:26.377Z,29440.00
2018-04-08T11:46:26.384Z,27360.00
2018-04-08T11:47:26.385Z,33920.00
2018-04-08T11:48:26.387Z,40800.00
2018-04-08T11:49:26.393Z,43264.00
2018-04-08T11:50:26.389Z,47072.00
2018-04-08T11:51:26.403Z,41952.00
2018-04-08T11:52:26.646Z,34464.00
2018-04-08T11:53:26.397Z,34208.00
2018-04-08T11:54:26.409Z,36608.00
2018-04-08T11:55:26.407Z,46208.00
2018-04-08T11:56:26.430Z,47616.00
2018-04-08T11:57:26.404Z,40384.00
2018-04-08T11:58:26.414Z,44800.00
2018-04-08T11:59:26.450Z,49248.00
2018-04-08T12:00:26.427Z,53248.00
2018-04-08T12:01:26.428Z,62976.00
2018-04-08T12:02:26.420Z,69248.00
2018-04-08T12:03:26.441Z,68160.00
2018-04-08T12:04:26.467Z,63968.00
2018-04-08T12:05:26.453Z,65248.00
2018-04-08T12:06:26.438Z,68864.00
2018-04-08T12:07:26.451Z,67040.00
2018-04-08T12:08:26.443Z,63648.00
2018-04-08T12:09:26.469Z,64128.00
2018-04-08T12:10:26.482Z,66400.00
2018-04-08T12:11:26.460Z,64864.00
2018-04-08T12:12:26.465Z,62816.00
2018-04-08T12:13:26.478Z,57920.00
2018-04-08T12:14:26.464Z,51232.00
2018-04-08T12:15:26.478Z,50048.00
2018-04-08T12:16:26.482Z,56736.00
2018-04-08T12:17:26.515Z,60576.00
2018-04-08T12:18:26.500Z,57120.00
2018-04-08T12:19:26.492Z,54656.00
2018-04-08T12:20:26.497Z,49728.00
2018-04-08T12:21:26.509Z,52000.00
2018-04-08T12:22:26.561Z,56064.00
2018-04-08T12:23:26.537Z,58496.00
2018-04-08T12:24:26.532Z,59840.00
2018-04-08T12:25:26.557Z,56192.00